createdAt,value
2023-01-02T00:00:22.754Z,8.50
2023-01-02T00:02:50.206Z,6.13
2023-01-02T00:05:17.823Z,5.90
2023-01-02T00:07:45.210Z,10.57
2023-01-02T00:10:12.796Z,11.50
2023-01-02T00:12:40.160Z,9.33
2023-01-02T00:15:09.388Z,10.23
2023-01-02T00:17:36.700Z,7.63
2023-01-02T00:20:04.415Z,7.80
2023-01-02T00:22:31.845Z,9.40
2023-01-02T00:24:59.242Z,9.35
2023-01-02T00:27:26.915Z,7.53
2023-01-02T00:29:54.266Z,7.77
2023-01-02T00:32:22.951Z,7.83
2023-01-02T00:34:50.323Z,8.70
2023-01-02T00:37:17.687Z,6.47
2023-01-02T00:39:45.157Z,9.80
2023-01-02T00:42:12.545Z,6.23
2023-01-02T00:44:39.986Z,8.25
2023-01-02T00:47:07.333Z,4.63
2023-01-02T00:49:36.347Z,5.03
2023-01-02T00:52:03.679Z,4.93
2023-01-02T00:54:31.026Z,10.13
2023-01-02T00:56:58.340Z,7.13
2023-01-02T00:59:25.679Z,7.63
2023-01-02T01:01:53.141Z,6.47
2023-01-02T01:04:20.526Z,6.45
2023-01-02T01:06:49.199Z,8.98
2023-01-02T01:09:16.793Z,6.40
2023-01-02T01:11:44.100Z,9.17
2023-01-02T01:14:11.490Z,8.90
2023-01-02T01:16:38.892Z,5.30
2023-01-02T01:19:06.291Z,5.43
2023-01-02T01:21:33.620Z,6.03
2023-01-02T01:24:02.315Z,6.60
2023-01-02T01:26:29.849Z,6.77
2023-01-02T01:28:57.592Z,7.57
2023-01-02T01:31:25.268Z,13.83
2023-01-02T01:33:52.701Z,7.78
2023-01-02T01:36:21.307Z,8.70
2023-01-02T01:38:48.978Z,10.83
2023-01-02T01:41:18.680Z,9.47
2023-01-02T01:43:46.917Z,12.80
2023-01-02T01:46:19.856Z,7.40
2023-01-02T01:48:48.114Z,7.33
2023-01-02T01:51:19.810Z,5.88
2023-01-02T01:53:47.947Z,7.05
2023-01-02T01:56:15.433Z,9.67
2023-01-02T01:58:45.260Z,10.20
2023-01-02T02:01:13.618Z,8.37
2023-01-02T02:03:42.173Z,6.55
2023-01-02T02:06:09.559Z,7.10
2023-01-02T02:08:38.473Z,9.07
2023-01-02T02:11:06.738Z,6.63
2023-01-02T02:13:35.026Z,9.45
2023-01-02T02:16:11.797Z,5.28
2023-01-02T02:18:45.798Z,6.70
2023-01-02T02:21:20.857Z,5.37
2023-01-02T02:24:00.920Z,12.30
2023-01-02T02:26:38.970Z,8.20
2023-01-02T02:29:17.224Z,7.07
2023-01-02T02:31:49.163Z,6.17
2023-01-02T02:34:21.212Z,4.67
2023-01-02T02:36:53.477Z,6.95
2023-01-02T02:39:26.677Z,6.53
2023-01-02T02:41:56.458Z,7.43
2023-01-02T02:44:32.326Z,10.70
2023-01-02T02:47:03.210Z,7.00
2023-01-02T02:49:36.835Z,7.28
2023-01-02T02:52:08.392Z,8.03
2023-01-02T02:54:38.261Z,8.80
2023-01-02T02:57:07.328Z,5.87
2023-01-02T02:59:35.407Z,6.10
2023-01-02T03:02:04.712Z,6.63
2023-01-02T03:04:32.107Z,5.90
2023-01-02T03:07:04.695Z,7.07
2023-01-02T03:09:38.836Z,8.27
2023-01-02T03:12:11.291Z,6.90
2023-01-02T03:14:41.894Z,6.05
2023-01-02T03:17:18.468Z,8.90
2023-01-02T03:19:49.653Z,9.43
2023-01-02T03:22:19.687Z,8.60
2023-01-02T03:24:48.774Z,12.07
2023-01-02T03:27:18.115Z,6.07
2023-01-02T03:29:48.405Z,6.70
2023-01-02T03:32:19.972Z,8.83
2023-01-02T03:34:48.273Z,5.68
2023-01-02T03:37:18.259Z,4.97
2023-01-02T03:39:47.129Z,9.87
2023-01-02T03:42:17.327Z,7.43
2023-01-02T03:44:47.231Z,7.18
2023-01-02T03:47:20.314Z,8.15
2023-01-02T03:49:49.438Z,8.80
2023-01-02T03:52:21.080Z,8.18
2023-01-02T03:54:51.784Z,7.60
2023-01-02T03:57:23.180Z,6.55
2023-01-02T03:59:56.241Z,7.45
2023-01-02T04:02:27.346Z,7.10
2023-01-02T04:04:55.895Z,7.10
2023-01-02T04:07:27.259Z,8.63
2023-01-02T04:09:54.890Z,8.43
2023-01-02T04:12:24.090Z,5.83
2023-01-02T04:14:53.069Z,8.17
2023-01-02T04:17:21.759Z,9.97
2023-01-02T04:19:52.088Z,10.20
2023-01-02T04:22:21.637Z,5.72
2023-01-02T04:24:51.115Z,9.15
2023-01-02T04:27:21.535Z,8.63
2023-01-02T04:29:48.863Z,6.25
2023-01-02T04:32:18.740Z,7.00
2023-01-02T04:34:46.655Z,9.20
2023-01-02T04:37:27.940Z,8.10
2023-01-02T04:39:57.180Z,8.70
2023-01-02T04:42:24.515Z,7.93
2023-01-02T04:44:51.864Z,8.13
2023-01-02T04:47:21.921Z,8.73
2023-01-02T04:49:49.434Z,9.25
2023-01-02T04:52:16.772Z,8.57
2023-01-02T04:54:45.461Z,7.57
2023-01-02T04:57:12.790Z,7.97
2023-01-02T04:59:40.149Z,8.88
2023-01-02T05:02:07.650Z,8.77
2023-01-02T05:04:35.056Z,5.70
2023-01-02T05:07:02.971Z,5.25
2023-01-02T05:09:30.278Z,6.38
2023-01-02T05:11:58.942Z,8.80
2023-01-02T05:14:26.298Z,6.75
2023-01-02T05:16:53.662Z,7.00
2023-01-02T05:19:20.977Z,9.60
2023-01-02T05:22:06.136Z,6.97
2023-01-02T05:24:33.440Z,9.52
2023-01-02T05:27:02.096Z,5.35
2023-01-02T05:29:30.217Z,7.75
2023-01-02T05:31:57.522Z,4.90
2023-01-02T05:34:24.854Z,6.78
2023-01-02T05:36:52.185Z,10.93
2023-01-02T05:39:19.567Z,6.07
2023-01-02T05:41:46.898Z,6.35
2023-01-02T05:44:15.555Z,6.15
2023-01-02T05:46:42.965Z,12.85
2023-01-02T05:49:11.358Z,8.90
2023-01-02T05:51:38.948Z,8.30
2023-01-02T05:54:06.360Z,11.90
2023-01-02T05:56:33.734Z,6.97
2023-01-02T05:59:01.080Z,7.38
2023-01-02T06:01:30.323Z,6.40
2023-01-02T06:03:58.765Z,7.82
2023-01-02T06:06:26.929Z,12.10
2023-01-02T06:08:54.328Z,7.60
2023-01-02T06:11:21.672Z,7.82
2023-01-02T06:13:49.016Z,8.98
2023-01-02T06:16:16.349Z,9.07
2023-01-02T06:18:45.054Z,7.38
2023-01-02T06:21:13.379Z,11.40
2023-01-02T06:23:41.190Z,11.55
2023-01-02T06:26:09.767Z,8.65
2023-01-02T06:28:37.475Z,7.85
2023-01-02T06:31:05.853Z,13.63
2023-01-02T06:33:33.444Z,8.68
2023-01-02T06:36:03.038Z,10.07
2023-01-02T06:38:30.597Z,10.80
2023-01-02T06:40:58.727Z,8.13
2023-01-02T06:43:26.765Z,8.65
2023-01-02T06:45:54.308Z,5.57
2023-01-02T06:48:21.691Z,7.40
2023-01-02T06:50:49.004Z,7.85
2023-01-02T06:53:17.684Z,10.55
2023-01-02T06:55:51.420Z,9.33
2023-01-02T06:58:19.661Z,8.50
2023-01-02T07:00:47.208Z,9.57
2023-01-02T07:03:14.858Z,7.07
2023-01-02T07:05:42.206Z,7.57
2023-01-02T07:08:09.924Z,7.20
2023-01-02T07:10:38.687Z,7.37
2023-01-02T07:13:05.994Z,7.70
2023-01-02T07:15:33.535Z,9.25
2023-01-02T07:18:01.259Z,9.17
2023-01-02T07:20:28.633Z,10.35
2023-01-02T07:22:56.011Z,8.07
2023-01-02T07:25:23.573Z,11.13
2023-01-02T07:27:52.207Z,9.50
2023-01-02T07:30:19.529Z,7.70
2023-01-02T07:32:46.849Z,6.40
2023-01-02T07:35:14.193Z,9.67
2023-01-02T07:37:41.495Z,9.02
2023-01-02T07:40:09.342Z,11.77
2023-01-02T07:42:36.676Z,9.52
2023-01-02T07:45:05.854Z,5.67
2023-01-02T07:47:33.161Z,11.27
2023-01-02T07:50:00.724Z,6.67
2023-01-02T07:52:28.065Z,8.90
2023-01-02T07:54:55.386Z,6.45
2023-01-02T07:57:22.691Z,8.60
2023-01-02T07:59:50.131Z,11.82
2023-01-02T08:02:18.891Z,9.17
2023-01-02T08:04:46.268Z,6.68
2023-01-02T08:07:13.597Z,10.57
2023-01-02T08:09:40.928Z,11.85
2023-01-02T08:12:08.270Z,8.23
2023-01-02T08:14:35.731Z,6.85
2023-01-02T08:17:03.105Z,7.90
2023-01-02T08:19:31.778Z,13.75
2023-01-02T08:21:59.070Z,10.55
2023-01-02T08:24:26.387Z,6.40
2023-01-02T08:26:53.742Z,7.97
2023-01-02T08:29:21.105Z,9.57
2023-01-02T08:31:48.499Z,10.48
2023-01-02T08:34:15.946Z,12.83
2023-01-02T08:36:46.786Z,10.68
2023-01-02T08:39:14.130Z,10.50
2023-01-02T08:41:41.827Z,9.70
2023-01-02T08:44:09.463Z,12.27
2023-01-02T08:46:42.511Z,9.47
2023-01-02T08:49:10.740Z,8.90
2023-01-02T08:51:38.050Z,6.18
2023-01-02T08:54:06.736Z,8.23
2023-01-02T08:56:35.311Z,8.75
2023-01-02T08:59:03.292Z,11.93
2023-01-02T09:01:31.864Z,9.50
2023-01-02T09:03:59.335Z,11.48
2023-01-02T09:06:27.478Z,10.68
2023-01-02T09:08:55.399Z,7.37
2023-01-02T09:11:24.773Z,6.38
2023-01-02T09:13:52.196Z,8.18
2023-01-02T09:16:19.622Z,10.98
2023-01-02T09:18:47.035Z,10.02
2023-01-02T09:21:14.396Z,12.52
2023-01-02T09:23:41.879Z,12.60
2023-01-02T09:26:09.665Z,10.32
2023-01-02T09:28:38.359Z,11.02
2023-01-02T09:31:11.822Z,11.05
2023-01-02T09:33:39.785Z,10.20
2023-01-02T09:36:08.153Z,10.30
2023-01-02T09:38:35.717Z,7.65
2023-01-02T09:41:10.838Z,5.93
2023-01-02T09:43:40.524Z,8.52
2023-01-02T09:46:09.239Z,7.13
2023-01-02T09:48:37.312Z,8.93
2023-01-02T09:51:07.923Z,9.13
2023-01-02T09:53:35.580Z,9.30
2023-01-02T09:56:05.370Z,6.38
2023-01-02T09:58:37.181Z,12.00
2023-01-02T10:01:07.214Z,7.43
2023-01-02T10:03:38.008Z,7.93
2023-01-02T10:06:10.612Z,10.13
2023-01-02T10:08:41.827Z,7.07
2023-01-02T10:11:15.808Z,10.18
2023-01-02T10:14:17.413Z,6.32
2023-01-02T10:16:37.818Z,11.02
2023-01-02T10:19:07.855Z,10.30
2023-01-02T10:21:36.906Z,10.00
2023-01-02T10:24:06.501Z,8.57
2023-01-02T10:26:36.786Z,10.95
2023-01-02T10:29:08.549Z,11.38
2023-01-02T10:31:39.151Z,12.15
2023-01-02T10:34:09.071Z,8.80
2023-01-02T10:36:39.983Z,10.40
2023-01-02T10:39:08.653Z,11.55
2023-01-02T10:41:36.256Z,13.55
2023-01-02T10:44:05.342Z,9.80
2023-01-02T10:46:34.674Z,10.93
2023-01-02T10:49:03.613Z,10.95
2023-01-02T10:51:31.587Z,7.30
2023-01-02T10:54:02.835Z,8.93
2023-01-02T10:56:31.569Z,9.05
2023-01-02T10:58:59.420Z,8.88
2023-01-02T11:01:27.269Z,9.02
2023-01-02T11:06:52.295Z,9.63
2023-01-02T11:09:21.218Z,9.98
2023-01-02T11:11:49.919Z,9.88
2023-01-02T11:14:17.262Z,9.98
2023-01-02T11:16:44.619Z,12.48
2023-01-02T11:19:20.425Z,8.43
2023-01-02T11:21:49.984Z,8.35
2023-01-02T11:24:22.364Z,5.20
2023-01-02T11:26:50.985Z,7.07
2023-01-02T11:29:19.327Z,6.07
2023-01-02T11:31:51.065Z,9.98
2023-01-02T11:34:25.182Z,9.32
2023-01-02T11:37:02.549Z,6.32
2023-01-02T11:39:31.908Z,7.03
2023-01-02T11:42:20.096Z,7.22
2023-01-02T11:44:51.334Z,11.27
2023-01-02T11:47:19.451Z,11.50
2023-01-02T11:49:49.451Z,10.90
2023-01-02T11:52:17.564Z,10.65
2023-01-02T11:54:50.505Z,9.85
2023-01-02T11:57:20.375Z,15.52
2023-01-02T11:59:49.497Z,7.22
2023-01-02T12:02:20.652Z,8.60
2023-01-02T12:04:48.061Z,9.73
2023-01-02T12:07:24.317Z,9.93
2023-01-02T12:09:59.811Z,11.48
2023-01-02T12:12:34.211Z,9.77
2023-01-02T12:15:11.924Z,10.38
2023-01-02T12:17:44.322Z,8.30
2023-01-02T12:20:19.667Z,8.07
2023-01-02T12:22:59.669Z,9.90
2023-01-02T12:25:44.766Z,8.85
2023-01-02T12:28:19.702Z,9.25
2023-01-02T12:30:49.440Z,6.18
2023-01-02T12:33:24.480Z,8.50
2023-01-02T12:36:00.949Z,6.00
2023-01-02T12:38:33.554Z,11.50
2023-01-02T12:41:05.531Z,7.00
2023-01-02T12:43:40.307Z,6.85
2023-01-02T12:46:12.512Z,7.80
2023-01-02T12:48:46.284Z,9.85
2023-01-02T12:51:16.809Z,8.93
2023-01-02T12:54:18.652Z,6.95
2023-01-02T12:56:41.624Z,2.60
2023-01-02T12:59:16.385Z,3.05
2023-01-02T13:01:46.690Z,2.42
2023-01-02T13:04:17.839Z,1.10
2023-01-02T13:06:51.100Z,3.17
2023-01-02T13:09:23.575Z,2.17
2023-01-02T13:11:54.811Z,1.15
2023-01-02T13:14:25.894Z,1.10
2023-01-02T13:16:56.763Z,0.98
2023-01-02T13:19:26.981Z,2.08
2023-01-02T13:21:55.600Z,0.60
2023-01-02T13:24:25.219Z,0.60
2023-01-02T13:26:53.164Z,0.50
2023-01-02T13:29:21.867Z,0.88
2023-01-02T13:31:52.724Z,0.88
2023-01-02T13:34:23.261Z,1.13
2023-01-02T13:36:51.465Z,1.25
2023-01-02T13:39:20.234Z,0.77
2023-01-02T13:42:08.920Z,1.25
2023-01-02T13:44:37.873Z,2.35
2023-01-02T13:47:11.613Z,1.17
2023-01-02T13:49:39.048Z,1.00
2023-01-02T13:52:06.492Z,0.90
2023-01-02T13:54:37.429Z,0.80
2023-01-02T13:57:18.679Z,3.00
2023-01-02T13:59:58.053Z,2.20
2023-01-02T14:02:27.130Z,0.90
2023-01-02T14:04:54.585Z,1.50
2023-01-02T14:07:39.874Z,1.52
2023-01-02T14:10:17.482Z,1.48
2023-01-02T14:12:53.044Z,1.27
2023-01-02T14:15:22.752Z,2.50
2023-01-02T14:17:54.070Z,3.33
2023-01-02T14:20:26.145Z,2.73
2023-01-02T14:22:54.583Z,1.63
2023-01-02T14:25:24.192Z,1.10
2023-01-02T14:27:53.075Z,4.40
2023-01-02T14:30:23.617Z,1.05
2023-01-02T14:32:51.687Z,1.23
2023-01-02T14:35:29.528Z,2.90
2023-01-02T14:38:06.689Z,2.20
2023-01-02T14:40:36.038Z,2.38
2023-01-02T14:43:18.747Z,1.98
2023-01-02T14:45:48.144Z,0.73
2023-01-02T14:48:17.827Z,1.10
2023-01-02T14:50:47.021Z,1.10
2023-01-02T14:53:17.835Z,1.52
2023-01-02T14:55:46.426Z,0.93
2023-01-02T14:58:17.459Z,0.82
2023-01-02T15:00:46.325Z,1.30
2023-01-02T15:03:18.426Z,1.00
2023-01-02T15:05:49.750Z,1.27
2023-01-02T15:08:19.048Z,1.20
2023-01-02T15:10:56.468Z,1.27
2023-01-02T15:13:26.087Z,2.13
2023-01-02T15:15:55.935Z,2.73
2023-01-02T15:18:24.593Z,3.07
2023-01-02T15:20:54.094Z,1.80
2023-01-02T15:23:22.141Z,1.73
2023-01-02T15:25:49.465Z,2.07
2023-01-02T15:28:24.519Z,1.20
2023-01-02T15:30:58.646Z,1.70
2023-01-02T15:33:27.515Z,4.73
2023-01-02T15:35:57.383Z,1.40
2023-01-02T15:38:24.809Z,2.30
2023-01-02T15:40:52.228Z,2.00
2023-01-02T15:43:37.291Z,2.65
2023-01-02T15:46:05.391Z,3.33
2023-01-02T15:48:33.170Z,3.53
2023-01-02T15:51:01.966Z,4.93
2023-01-02T15:53:30.351Z,3.60
2023-01-02T15:55:58.279Z,3.70
2023-01-02T15:58:27.593Z,4.25
2023-01-02T16:01:10.767Z,3.00
2023-01-02T16:04:01.793Z,4.27
2023-01-02T16:06:29.586Z,3.50
2023-01-02T16:08:58.713Z,4.27
2023-01-02T16:11:26.625Z,3.90
2023-01-02T16:14:12.509Z,3.53
2023-01-02T16:16:44.547Z,3.33
2023-01-02T16:19:16.253Z,3.07
2023-01-02T16:21:44.993Z,2.47
2023-01-02T16:24:12.919Z,3.60
2023-01-02T16:26:41.743Z,3.00
2023-01-02T16:29:13.308Z,2.47
2023-01-02T16:31:51.278Z,2.40
2023-01-02T16:34:25.636Z,3.03
2023-01-02T16:37:07.852Z,3.93
2023-01-02T16:39:44.855Z,3.03
2023-01-02T16:42:29.702Z,4.53
2023-01-02T16:44:57.000Z,2.83
2023-01-02T16:47:25.509Z,3.73
2023-01-02T16:49:52.882Z,3.37
2023-01-02T16:52:20.241Z,4.10
2023-01-02T16:54:53.901Z,4.67
2023-01-02T16:57:22.671Z,4.40
2023-01-02T16:59:49.979Z,5.50
2023-01-02T17:02:17.349Z,3.00
2023-01-02T17:04:44.729Z,3.80
2023-01-02T17:07:14.556Z,4.97
2023-01-02T17:09:45.952Z,4.13
2023-01-02T17:12:14.636Z,3.47
2023-01-02T17:14:41.981Z,3.40
2023-01-02T17:17:09.363Z,3.47
2023-01-02T17:19:36.679Z,3.67
2023-01-02T17:22:04.055Z,3.77
2023-01-02T17:24:31.425Z,3.63
2023-01-02T17:26:58.783Z,3.70
2023-01-02T17:29:29.630Z,3.27
2023-01-02T17:31:57.061Z,3.77
2023-01-02T17:34:24.483Z,4.03
2023-01-02T17:36:53.058Z,6.67
2023-01-02T17:39:20.487Z,3.73
2023-01-02T17:41:49.325Z,5.70
2023-01-02T17:44:16.697Z,5.93
2023-01-02T17:49:32.803Z,5.23
2023-01-02T17:52:00.215Z,4.07
2023-01-02T17:54:27.547Z,4.23
2023-01-02T17:56:54.860Z,4.07
2023-01-02T17:59:22.227Z,4.13
2023-01-02T18:01:51.104Z,4.07
2023-01-02T18:04:18.817Z,5.63
2023-01-02T18:06:46.296Z,5.07
2023-01-02T18:09:13.704Z,7.73
2023-01-02T18:11:41.059Z,7.27
2023-01-02T18:14:13.522Z,5.97
2023-01-02T18:16:41.444Z,5.10
2023-01-02T18:19:13.955Z,6.37
2023-01-02T18:21:41.336Z,6.13
2023-01-02T18:24:12.414Z,6.37
2023-01-02T18:26:39.770Z,4.80
2023-01-02T18:29:11.811Z,3.17
2023-01-02T18:31:40.504Z,5.87
2023-01-02T18:34:45.892Z,6.37
2023-01-02T18:37:03.371Z,9.17
2023-01-02T18:39:42.555Z,7.70
2023-01-02T18:42:13.280Z,9.17
2023-01-02T18:44:41.328Z,8.93
2023-01-02T18:47:15.142Z,6.03
2023-01-02T18:49:45.437Z,5.63
2023-01-02T18:52:22.454Z,4.97
2023-01-02T18:54:52.730Z,5.83
2023-01-02T18:57:22.577Z,5.43
2023-01-02T18:59:50.508Z,6.00
2023-01-02T19:02:24.452Z,4.80
2023-01-02T19:04:53.388Z,8.33
2023-01-02T19:07:29.912Z,6.13
2023-01-02T19:09:57.883Z,4.43
2023-01-02T19:12:44.470Z,5.57
2023-01-02T19:15:34.213Z,3.97
2023-01-02T19:18:03.275Z,2.97
2023-01-02T19:20:32.080Z,4.00
2023-01-02T19:23:00.728Z,3.97
2023-01-02T19:25:28.111Z,5.80
2023-01-02T19:27:56.150Z,8.67
2023-01-02T19:30:29.397Z,5.53
2023-01-02T19:32:56.773Z,5.73
2023-01-02T19:35:53.415Z,5.20
2023-01-02T19:38:25.897Z,6.07
2023-01-02T19:40:53.210Z,5.80
2023-01-02T19:43:20.793Z,7.03
2023-01-02T19:45:48.580Z,6.03
2023-01-02T19:48:18.276Z,5.73
2023-01-02T19:50:46.147Z,4.87
2023-01-02T19:53:14.799Z,5.63
2023-01-02T19:55:42.144Z,5.03
2023-01-02T19:58:09.517Z,5.57
2023-01-02T20:00:36.866Z,5.50
2023-01-02T20:03:04.433Z,5.93
2023-01-02T20:05:31.952Z,6.63
2023-01-02T20:07:59.410Z,7.13
2023-01-02T20:10:28.050Z,4.40
2023-01-02T20:12:55.480Z,5.57
2023-01-02T20:15:24.396Z,5.40
2023-01-02T20:17:52.450Z,4.50
2023-01-02T20:20:20.613Z,4.77
2023-01-02T20:22:51.079Z,3.43
2023-01-02T20:25:20.954Z,2.73
2023-01-02T20:27:49.797Z,3.40
2023-01-02T20:30:23.704Z,2.60
2023-01-02T20:32:51.977Z,2.30
2023-01-02T20:35:19.369Z,2.60
2023-01-02T20:37:47.558Z,3.13
2023-01-02T20:40:14.995Z,3.00
2023-01-02T20:42:42.481Z,1.50
2023-01-02T20:45:11.886Z,3.13
2023-01-02T20:47:39.184Z,3.23
2023-01-02T20:50:06.801Z,3.20
2023-01-02T20:52:34.164Z,2.20
2023-01-02T20:55:01.549Z,2.40
2023-01-02T20:57:29.096Z,3.37
2023-01-02T20:59:56.494Z,2.47
2023-01-02T21:02:25.444Z,3.97
2023-01-02T21:04:53.119Z,2.80
2023-01-02T21:07:20.489Z,3.03
2023-01-02T21:09:47.821Z,4.17
2023-01-02T21:12:29.199Z,2.23
2023-01-02T21:14:56.598Z,2.37
2023-01-02T21:17:25.293Z,4.57
2023-01-02T21:19:52.633Z,3.23
2023-01-02T21:22:19.972Z,2.47
2023-01-02T21:24:47.319Z,2.10
2023-01-02T21:27:14.658Z,2.17
2023-01-02T21:29:41.992Z,2.77
2023-01-02T21:32:09.349Z,4.07
2023-01-02T21:34:38.025Z,2.23
2023-01-02T21:37:05.370Z,3.33
2023-01-02T21:39:32.807Z,2.43
2023-01-02T21:42:18.172Z,3.30
2023-01-02T21:44:47.089Z,5.30
2023-01-02T21:47:14.593Z,3.20
2023-01-02T21:49:43.400Z,2.67
2023-01-02T21:52:11.131Z,3.13
2023-01-02T21:54:38.561Z,2.07
2023-01-02T21:57:05.867Z,4.30
2023-01-02T21:59:33.430Z,3.90
2023-01-02T22:02:03.660Z,6.80
2023-01-02T22:04:31.707Z,4.37
2023-01-02T22:09:47.803Z,2.60
2023-01-02T22:12:15.476Z,3.37
2023-01-02T22:14:43.077Z,3.33
2023-01-02T22:17:11.200Z,3.70
2023-01-02T22:19:38.662Z,3.40
2023-01-02T22:22:07.580Z,3.20
2023-01-02T22:24:40.739Z,3.83
2023-01-02T22:27:14.360Z,5.37
2023-01-02T22:30:18.715Z,3.90
2023-01-02T22:32:31.985Z,5.13
2023-01-02T22:34:59.602Z,3.10
2023-01-02T22:37:28.240Z,3.50
2023-01-02T22:39:55.545Z,3.73
2023-01-02T22:45:29.890Z,4.17
2023-01-02T22:47:58.189Z,5.93
2023-01-02T22:50:27.067Z,3.33
2023-01-02T22:52:56.164Z,3.40
2023-01-02T22:55:24.464Z,2.90
2023-01-02T22:57:52.151Z,2.00
2023-01-02T23:00:22.225Z,2.53
2023-01-02T23:02:49.664Z,4.40
2023-01-02T23:05:17.852Z,3.90
2023-01-02T23:07:45.605Z,1.80
2023-01-02T23:10:14.345Z,2.50
2023-01-02T23:12:41.699Z,3.97
2023-01-02T23:15:12.041Z,7.63
2023-01-02T23:17:57.073Z,4.10
2023-01-02T23:20:25.276Z,2.13
2023-01-02T23:22:52.571Z,3.37
2023-01-02T23:25:21.389Z,2.60
2023-01-02T23:27:49.139Z,2.23
2023-01-02T23:30:16.687Z,2.77
2023-01-02T23:32:44.003Z,3.47
2023-01-02T23:35:11.415Z,4.63
2023-01-02T23:37:38.756Z,3.60
2023-01-02T23:40:06.614Z,2.50
2023-01-02T23:42:35.271Z,3.63
2023-01-02T23:45:03.014Z,2.07
2023-01-02T23:47:30.338Z,2.30
2023-01-02T23:49:57.660Z,1.93
2023-01-02T23:52:24.976Z,3.37
2023-01-02T23:54:52.295Z,1.70
2023-01-02T23:57:19.653Z,0.97
2023-01-02T23:59:48.336Z,4.33
